sensor_id;sensor_type;location;lat;lon;timestamp;pressure;altitude;pressure_sealevel;temperature;humidity
10466;BME280;5280;42.600;23.556;2024-03-17T00:01:51;93625.31;;;7.34;100.00
10466;BME280;5280;42.600;23.556;2024-03-17T00:04:17;93633.00;;;7.37;100.00
10466;BME280;5280;42.600;23.556;2024-03-17T00:06:46;93612.56;;;7.14;100.00
10466;BME280;5280;42.600;23.556;2024-03-17T00:09:12;93606.09;;;7.05;100.00
10466;BME280;5280;42.600;23.556;2024-03-17T00:11:41;93615.75;;;7.05;100.00
10466;BME280;5280;42.600;23.556;2024-03-17T00:14:07;93633.41;;;7.17;100.00
10466;BME280;5280;42.600;23.556;2024-03-17T00:16:34;93609.88;;;7.01;100.00
10466;BME280;5280;42.600;23.556;2024-03-17T00:19:00;93590.94;;;6.82;100.00
10466;BME280;5280;42.600;23.556;2024-03-17T00:21:27;93630.41;;;7.09;100.00
10466;BME280;5280;42.600;23.556;2024-03-17T00:23:54;93621.50;;;6.97;100.00
10466;BME280;5280;42.600;23.556;2024-03-17T00:26:22;93616.72;;;6.89;100.00
10466;BME280;5280;42.600;23.556;2024-03-17T00:28:48;93618.41;;;6.90;100.00
10466;BME280;5280;42.600;23.556;2024-03-17T00:31:16;93626.09;;;6.79;100.00
10466;BME280;5280;42.600;23.556;2024-03-17T00:33:42;93621.75;;;6.64;100.00
10466;BME280;5280;42.600;23.556;2024-03-17T00:36:09;93617.28;;;6.80;100.00
10466;BME280;5280;42.600;23.556;2024-03-17T00:38:35;93601.97;;;6.73;100.00
10466;BME280;5280;42.600;23.556;2024-03-17T00:41:04;93576.84;;;6.55;100.00
10466;BME280;5280;42.600;23.556;2024-03-17T00:43:30;93543.38;;;6.44;100.00
10466;BME280;5280;42.600;23.556;2024-03-17T00:45:57;93601.16;;;6.72;100.00
10466;BME280;5280;42.600;23.556;2024-03-17T00:48:23;93609.56;;;6.63;100.00
10466;BME280;5280;42.600;23.556;2024-03-17T00:50:55;93609.19;;;6.41;100.00
10466;BME280;5280;42.600;23.556;2024-03-17T00:53:21;93577.41;;;6.31;100.00
10466;BME280;5280;42.600;23.556;2024-03-17T00:55:51;93603.56;;;6.47;100.00
10466;BME280;5280;42.600;23.556;2024-03-17T00:58:19;93619.97;;;6.51;100.00
10466;BME280;5280;42.600;23.556;2024-03-17T01:00:46;93629.72;;;6.48;100.00
10466;BME280;5280;42.600;23.556;2024-03-17T01:03:13;93606.09;;;6.48;100.00
10466;BME280;5280;42.600;23.556;2024-03-17T01:05:40;93623.88;;;6.43;100.00
10466;BME280;5280;42.600;23.556;2024-03-17T01:08:08;93603.44;;;6.34;100.00
10466;BME280;5280;42.600;23.556;2024-03-17T01:10:37;93623.03;;;6.43;100.00
10466;BME280;5280;42.600;23.556;2024-03-17T01:13:03;93597.34;;;6.34;100.00
10466;BME280;5280;42.600;23.556;2024-03-17T01:15:32;93619.69;;;6.41;100.00
10466;BME280;5280;42.600;23.556;2024-03-17T01:17:58;93596.41;;;6.35;100.00
10466;BME280;5280;42.600;23.556;2024-03-17T01:20:25;93615.75;;;6.48;100.00
10466;BME280;5280;42.600;23.556;2024-03-17T01:22:51;93621.38;;;6.42;100.00
10466;BME280;5280;42.600;23.556;2024-03-17T01:25:18;93624.75;;;6.44;100.00
10466;BME280;5280;42.600;23.556;2024-03-17T01:27:45;93575.03;;;6.13;100.00
10466;BME280;5280;42.600;23.556;2024-03-17T01:30:12;93623.63;;;6.48;100.00
10466;BME280;5280;42.600;23.556;2024-03-17T01:32:39;93608.03;;;6.31;100.00
10466;BME280;5280;42.600;23.556;2024-03-17T01:35:07;93525.06;;;5.84;100.00
10466;BME280;5280;42.600;23.556;2024-03-17T01:37:33;93633.53;;;6.43;100.00
10466;BME280;5280;42.600;23.556;2024-03-17T01:40:00;93560.06;;;5.99;100.00
10466;BME280;5280;42.600;23.556;2024-03-17T01:42:27;93624.94;;;6.41;100.00
10466;BME280;5280;42.600;23.556;2024-03-17T01:44:54;93614.22;;;6.30;100.00
10466;BME280;5280;42.600;23.556;2024-03-17T01:47:22;93574.44;;;6.08;100.00
10466;BME280;5280;42.600;23.556;2024-03-17T01:49:49;93627.00;;;6.36;100.00
10466;BME280;5280;42.600;23.556;2024-03-17T01:52:17;93625.28;;;6.35;100.00
10466;BME280;5280;42.600;23.556;2024-03-17T01:54:44;93613.44;;;6.28;100.00
10466;BME280;5280;42.600;23.556;2024-03-17T01:57:13;93618.69;;;6.28;100.00
10466;BME280;5280;42.600;23.556;2024-03-17T01:59:39;93626.41;;;6.31;100.00
10466;BME280;5280;42.600;23.556;2024-03-17T02:02:06;93628.38;;;6.27;100.00
10466;BME280;5280;42.600;23.556;2024-03-17T02:04:32;93615.34;;;6.26;100.00
10466;BME280;5280;42.600;23.556;2024-03-17T02:07:01;93619.81;;;6.24;100.00
10466;BME280;5280;42.600;23.556;2024-03-17T02:09:27;93622.44;;;6.24;100.00
10466;BME280;5280;42.600;23.556;2024-03-17T02:11:54;93612.50;;;6.15;100.00
10466;BME280;5280;42.600;23.556;2024-03-17T02:14:20;93611.84;;;6.11;100.00
10466;BME280;5280;42.600;23.556;2024-03-17T02:16:47;93606.75;;;6.08;100.00
10466;BME280;5280;42.600;23.556;2024-03-17T02:19:13;93585.84;;;5.92;100.00
10466;BME280;5280;42.600;23.556;2024-03-17T02:21:40;93572.19;;;5.86;100.00
10466;BME280;5280;42.600;23.556;2024-03-17T02:24:09;93595.22;;;5.96;100.00
10466;BME280;5280;42.600;23.556;2024-03-17T02:26:36;93590.50;;;5.87;100.00
10466;BME280;5280;42.600;23.556;2024-03-17T02:29:03;93536.06;;;5.61;100.00
10466;BME280;5280;42.600;23.556;2024-03-17T02:31:31;93603.75;;;6.00;100.00
10466;BME280;5280;42.600;23.556;2024-03-17T02:33:57;93565.28;;;5.69;100.00
10466;BME280;5280;42.600;23.556;2024-03-17T02:36:28;93618.47;;;6.02;100.00
10466;BME280;5280;42.600;23.556;2024-03-17T02:38:54;93595.03;;;5.84;100.00
10466;BME280;5280;42.600;23.556;2024-03-17T02:41:42;93613.50;;;5.82;100.00
10466;BME280;5280;42.600;23.556;2024-03-17T02:44:09;93604.09;;;5.78;100.00
10466;BME280;5280;42.600;23.556;2024-03-17T02:46:36;93609.19;;;5.81;100.00
10466;BME280;5280;42.600;23.556;2024-03-17T02:49:03;93618.31;;;5.90;100.00
10466;BME280;5280;42.600;23.556;2024-03-17T02:51:30;93576.13;;;5.63;100.00
10466;BME280;5280;42.600;23.556;2024-03-17T02:53:57;93621.19;;;5.85;100.00
10466;BME280;5280;42.600;23.556;2024-03-17T02:56:30;93601.41;;;5.64;100.00
10466;BME280;5280;42.600;23.556;2024-03-17T02:59:00;93620.19;;;5.72;100.00
10466;BME280;5280;42.600;23.556;2024-03-17T03:01:27;93592.97;;;5.59;100.00
10466;BME280;5280;42.600;23.556;2024-03-17T03:03:54;93596.53;;;5.58;100.00
10466;BME280;5280;42.600;23.556;2024-03-17T03:06:21;93606.50;;;5.67;100.00
10466;BME280;5280;42.600;23.556;2024-03-17T03:08:48;93585.44;;;5.53;100.00
10466;BME280;5280;42.600;23.556;2024-03-17T03:11:16;93604.97;;;5.63;100.00
10466;BME280;5280;42.600;23.556;2024-03-17T03:13:43;93612.69;;;5.66;100.00
10466;BME280;5280;42.600;23.556;2024-03-17T03:16:13;93559.28;;;5.37;100.00
10466;BME280;5280;42.600;23.556;2024-03-17T03:18:40;93614.44;;;5.66;100.00
10466;BME280;5280;42.600;23.556;2024-03-17T03:21:09;93604.50;;;5.56;100.00
10466;BME280;5280;42.600;23.556;2024-03-17T03:23:36;93517.66;;;5.01;100.00
10466;BME280;5280;42.600;23.556;2024-03-17T03:26:03;93568.09;;;5.36;100.00
10466;BME280;5280;42.600;23.556;2024-03-17T03:28:34;93575.94;;;5.36;100.00
10466;BME280;5280;42.600;23.556;2024-03-17T03:31:02;93617.25;;;5.62;100.00
10466;BME280;5280;42.600;23.556;2024-03-17T03:33:30;93603.97;;;5.50;100.00
10466;BME280;5280;42.600;23.556;2024-03-17T03:35:57;93614.78;;;5.59;100.00
10466;BME280;5280;42.600;23.556;2024-03-17T03:38:24;93594.78;;;5.43;100.00
10466;BME280;5280;42.600;23.556;2024-03-17T03:40:51;93618.53;;;5.55;100.00
10466;BME280;5280;42.600;23.556;2024-03-17T03:43:19;93612.44;;;5.55;100.00
10466;BME280;5280;42.600;23.556;2024-03-17T03:45:46;93615.13;;;5.53;100.00
10466;BME280;5280;42.600;23.556;2024-03-17T03:48:13;93613.53;;;5.51;100.00
10466;BME280;5280;42.600;23.556;2024-03-17T03:50:41;93620.38;;;5.53;100.00
10466;BME280;5280;42.600;23.556;2024-03-17T03:53:09;93583.56;;;5.25;100.00
10466;BME280;5280;42.600;23.556;2024-03-17T03:55:37;93621.41;;;5.51;100.00
10466;BME280;5280;42.600;23.556;2024-03-17T03:58:04;93628.50;;;5.49;100.00
10466;BME280;5280;42.600;23.556;2024-03-17T04:00:31;93615.91;;;5.40;100.00
10466;BME280;5280;42.600;23.556;2024-03-17T04:02:58;93638.06;;;5.50;100.00
10466;BME280;5280;42.600;23.556;2024-03-17T04:05:27;93621.06;;;5.41;100.00
10466;BME280;5280;42.600;23.556;2024-03-17T04:07:56;93639.16;;;5.46;100.00
10466;BME280;5280;42.600;23.556;2024-03-17T04:10:24;93634.84;;;5.45;100.00
10466;BME280;5280;42.600;23.556;2024-03-17T04:12:51;93618.19;;;5.30;100.00
10466;BME280;5280;42.600;23.556;2024-03-17T04:15:18;93644.59;;;5.43;100.00
10466;BME280;5280;42.600;23.556;2024-03-17T04:17:46;93647.44;;;5.38;100.00
10466;BME280;5280;42.600;23.556;2024-03-17T04:20:13;93622.69;;;5.12;100.00
10466;BME280;5280;42.600;23.556;2024-03-17T04:22:40;93654.47;;;5.38;100.00
10466;BME280;5280;42.600;23.556;2024-03-17T04:25:10;93622.25;;;5.04;100.00
10466;BME280;5280;42.600;23.556;2024-03-17T04:27:38;93654.97;;;5.29;100.00
10466;BME280;5280;42.600;23.556;2024-03-17T04:30:06;93654.88;;;5.30;100.00
10466;BME280;5280;42.600;23.556;2024-03-17T04:32:33;93644.13;;;5.19;100.00
10466;BME280;5280;42.600;23.556;2024-03-17T04:35:00;93661.22;;;5.26;100.00
10466;BME280;5280;42.600;23.556;2024-03-17T04:37:28;93671.63;;;5.28;100.00
10466;BME280;5280;42.600;23.556;2024-03-17T04:39:55;93682.19;;;5.26;100.00
10466;BME280;5280;42.600;23.556;2024-03-17T04:42:24;93674.91;;;5.15;100.00
10466;BME280;5280;42.600;23.556;2024-03-17T04:44:51;93682.44;;;5.22;100.00
10466;BME280;5280;42.600;23.556;2024-03-17T04:47:18;93672.47;;;5.12;100.00
10466;BME280;5280;42.600;23.556;2024-03-17T04:49:45;93686.16;;;5.17;100.00
10466;BME280;5280;42.600;23.556;2024-03-17T04:52:13;93645.53;;;4.93;100.00
10466;BME280;5280;42.600;23.556;2024-03-17T04:54:42;93655.03;;;4.96;100.00
10466;BME280;5280;42.600;23.556;2024-03-17T04:57:09;93629.13;;;4.74;100.00
10466;BME280;5280;42.600;23.556;2024-03-17T04:59:37;93685.88;;;5.06;100.00
10466;BME280;5280;42.600;23.556;2024-03-17T05:02:04;93684.00;;;5.08;100.00
10466;BME280;5280;42.600;23.556;2024-03-17T05:04:31;93701.09;;;5.15;100.00
10466;BME280;5280;42.600;23.556;2024-03-17T05:06:58;93676.50;;;5.02;100.00
10466;BME280;5280;42.600;23.556;2024-03-17T05:09:25;93687.16;;;5.15;100.00
10466;BME280;5280;42.600;23.556;2024-03-17T05:11:52;93619.59;;;4.73;100.00
10466;BME280;5280;42.600;23.556;2024-03-17T05:14:19;93688.00;;;5.15;100.00
10466;BME280;5280;42.600;23.556;2024-03-17T05:16:49;93681.25;;;5.11;100.00
10466;BME280;5280;42.600;23.556;2024-03-17T05:19:16;93697.97;;;5.25;100.00
10466;BME280;5280;42.600;23.556;2024-03-17T05:21:44;93666.88;;;5.03;100.00
10466;BME280;5280;42.600;23.556;2024-03-17T05:24:11;93663.16;;;5.07;100.00
10466;BME280;5280;42.600;23.556;2024-03-17T05:26:38;93687.75;;;5.20;100.00
10466;BME280;5280;42.600;23.556;2024-03-17T05:29:06;93695.28;;;5.26;100.00
10466;BME280;5280;42.600;23.556;2024-03-17T05:31:33;93690.91;;;5.27;100.00
10466;BME280;5280;42.600;23.556;2024-03-17T05:34:01;93698.19;;;5.37;100.00
10466;BME280;5280;42.600;23.556;2024-03-17T05:36:29;93726.31;;;5.49;100.00
10466;BME280;5280;42.600;23.556;2024-03-17T05:38:58;93716.44;;;5.54;100.00
10466;BME280;5280;42.600;23.556;2024-03-17T05:41:25;93719.66;;;5.59;100.00
10466;BME280;5280;42.600;23.556;2024-03-17T05:43:53;93722.94;;;5.63;100.00
10466;BME280;5280;42.600;23.556;2024-03-17T05:46:24;93705.44;;;5.63;100.00
10466;BME280;5280;42.600;23.556;2024-03-17T05:48:52;93688.28;;;5.58;100.00
10466;BME280;5280;42.600;23.556;2024-03-17T05:51:21;93691.47;;;5.63;100.00
10466;BME280;5280;42.600;23.556;2024-03-17T05:53:51;93723.31;;;5.88;100.00
10466;BME280;5280;42.600;23.556;2024-03-17T05:56:18;93727.22;;;5.97;100.00
10466;BME280;5280;42.600;23.556;2024-03-17T05:58:44;93705.28;;;5.98;100.00
10466;BME280;5280;42.600;23.556;2024-03-17T06:01:13;93715.94;;;6.11;100.00
10466;BME280;5280;42.600;23.556;2024-03-17T06:03:40;93717.25;;;6.18;100.00
10466;BME280;5280;42.600;23.556;2024-03-17T06:06:08;93713.72;;;6.19;100.00
10466;BME280;5280;42.600;23.556;2024-03-17T06:08:37;93719.78;;;6.35;100.00
10466;BME280;5280;42.600;23.556;2024-03-17T06:11:04;93712.84;;;6.34;100.00
10466;BME280;5280;42.600;23.556;2024-03-17T06:13:31;93712.06;;;6.47;100.00
10466;BME280;5280;42.600;23.556;2024-03-17T06:15:59;93724.53;;;6.58;100.00
10466;BME280;5280;42.600;23.556;2024-03-17T06:18:27;93726.22;;;6.59;100.00
10466;BME280;5280;42.600;23.556;2024-03-17T06:20:54;93721.56;;;6.78;100.00
10466;BME280;5280;42.600;23.556;2024-03-17T06:23:23;93729.41;;;6.94;100.00
10466;BME280;5280;42.600;23.556;2024-03-17T06:25:53;93705.75;;;6.94;100.00
10466;BME280;5280;42.600;23.556;2024-03-17T06:28:21;93709.41;;;6.91;100.00
10466;BME280;5280;42.600;23.556;2024-03-17T06:30:55;93725.47;;;7.15;100.00
10466;BME280;5280;42.600;23.556;2024-03-17T06:33:24;93730.19;;;7.24;100.00
10466;BME280;5280;42.600;23.556;2024-03-17T06:35:51;93733.09;;;7.34;100.00
10466;BME280;5280;42.600;23.556;2024-03-17T06:38:18;93679.59;;;7.21;100.00
10466;BME280;5280;42.600;23.556;2024-03-17T06:40:48;93720.69;;;7.50;100.00
10466;BME280;5280;42.600;23.556;2024-03-17T06:43:17;93738.06;;;7.67;100.00
10466;BME280;5280;42.600;23.556;2024-03-17T06:45:54;93730.19;;;7.67;100.00
10466;BME280;5280;42.600;23.556;2024-03-17T06:48:22;93707.16;;;7.56;100.00
10466;BME280;5280;42.600;23.556;2024-03-17T06:50:50;93636.78;;;7.19;100.00
10466;BME280;5280;42.600;23.556;2024-03-17T06:53:20;93744.31;;;7.78;100.00
10466;BME280;5280;42.600;23.556;2024-03-17T06:55:52;93762.28;;;7.86;100.00
10466;BME280;5280;42.600;23.556;2024-03-17T06:58:22;93745.25;;;7.92;100.00
10466;BME280;5280;42.600;23.556;2024-03-17T07:00:59;93683.50;;;7.56;100.00
10466;BME280;5280;42.600;23.556;2024-03-17T07:03:28;93746.63;;;8.11;100.00
10466;BME280;5280;42.600;23.556;2024-03-17T07:05:56;93731.94;;;8.07;100.00
10466;BME280;5280;42.600;23.556;2024-03-17T07:08:24;93663.91;;;7.74;100.00
10466;BME280;5280;42.600;23.556;2024-03-17T07:10:56;93744.78;;;8.26;100.00
10466;BME280;5280;42.600;23.556;2024-03-17T07:13:32;93679.81;;;8.00;100.00
10466;BME280;5280;42.600;23.556;2024-03-17T07:16:01;93746.88;;;8.48;100.00
10466;BME280;5280;42.600;23.556;2024-03-17T07:18:30;93740.53;;;8.64;100.00
10466;BME280;5280;42.600;23.556;2024-03-17T07:20:58;93721.53;;;8.59;100.00
10466;BME280;5280;42.600;23.556;2024-03-17T07:23:25;93741.16;;;8.68;100.00
10466;BME280;5280;42.600;23.556;2024-03-17T07:25:53;93734.06;;;8.95;100.00
10466;BME280;5280;42.600;23.556;2024-03-17T07:28:20;93686.34;;;8.60;100.00
10466;BME280;5280;42.600;23.556;2024-03-17T07:30:50;93733.22;;;9.07;100.00
10466;BME280;5280;42.600;23.556;2024-03-17T07:33:24;93672.47;;;8.71;100.00
10466;BME280;5280;42.600;23.556;2024-03-17T07:35:53;93730.03;;;9.02;100.00
10466;BME280;5280;42.600;23.556;2024-03-17T07:38:28;93721.81;;;9.07;100.00
10466;BME280;5280;42.600;23.556;2024-03-17T07:41:02;93736.38;;;9.38;100.00
10466;BME280;5280;42.600;23.556;2024-03-17T07:43:31;93723.00;;;9.28;100.00
10466;BME280;5280;42.600;23.556;2024-03-17T07:46:01;93672.91;;;9.16;100.00
10466;BME280;5280;42.600;23.556;2024-03-17T07:48:47;93725.53;;;9.55;100.00
10466;BME280;5280;42.600;23.556;2024-03-17T07:51:24;93672.47;;;9.22;100.00
10466;BME280;5280;42.600;23.556;2024-03-17T07:53:53;93728.78;;;9.59;100.00
10466;BME280;5280;42.600;23.556;2024-03-17T07:56:21;93741.84;;;9.85;100.00
10466;BME280;5280;42.600;23.556;2024-03-17T07:58:50;93735.72;;;9.72;100.00
10466;BME280;5280;42.600;23.556;2024-03-17T08:01:41;93749.97;;;9.95;100.00
10466;BME280;5280;42.600;23.556;2024-03-17T08:04:09;93712.47;;;9.90;100.00
10466;BME280;5280;42.600;23.556;2024-03-17T08:06:37;93735.22;;;10.16;100.00
10466;BME280;5280;42.600;23.556;2024-03-17T08:09:04;93739.97;;;10.24;100.00
10466;BME280;5280;42.600;23.556;2024-03-17T08:11:33;93680.25;;;9.98;100.00
10466;BME280;5280;42.600;23.556;2024-03-17T08:14:00;93730.34;;;10.35;100.00
10466;BME280;5280;42.600;23.556;2024-03-17T08:16:30;93675.03;;;10.09;100.00
10466;BME280;5280;42.600;23.556;2024-03-17T08:19:01;93735.09;;;10.54;100.00
10466;BME280;5280;42.600;23.556;2024-03-17T08:21:31;93726.50;;;10.63;100.00
10466;BME280;5280;42.600;23.556;2024-03-17T08:23:58;93683.94;;;10.55;100.00
10466;BME280;5280;42.600;23.556;2024-03-17T08:26:34;93707.47;;;10.82;100.00
10466;BME280;5280;42.600;23.556;2024-03-17T08:29:02;93733.53;;;11.10;100.00
10466;BME280;5280;42.600;23.556;2024-03-17T08:31:29;93737.00;;;11.11;100.00
10466;BME280;5280;42.600;23.556;2024-03-17T08:33:56;93654.94;;;10.77;100.00
10466;BME280;5280;42.600;23.556;2024-03-17T08:36:24;93683.28;;;11.10;100.00
10466;BME280;5280;42.600;23.556;2024-03-17T08:38:51;93721.31;;;11.43;100.00
10466;BME280;5280;42.600;23.556;2024-03-17T08:41:18;93725.41;;;11.47;100.00
10466;BME280;5280;42.600;23.556;2024-03-17T08:43:45;93718.69;;;11.54;100.00
10466;BME280;5280;42.600;23.556;2024-03-17T08:46:12;93707.63;;;11.60;100.00
10466;BME280;5280;42.600;23.556;2024-03-17T08:48:41;93719.56;;;11.65;100.00
10466;BME280;5280;42.600;23.556;2024-03-17T08:51:08;93715.91;;;11.66;100.00
10466;BME280;5280;42.600;23.556;2024-03-17T08:53:37;93716.91;;;11.77;98.62
10466;BME280;5280;42.600;23.556;2024-03-17T08:56:06;93679.94;;;11.64;100.00
10466;BME280;5280;42.600;23.556;2024-03-17T08:58:34;93679.69;;;11.56;97.80
10466;BME280;5280;42.600;23.556;2024-03-17T09:01:06;93659.00;;;11.72;98.88
10466;BME280;5280;42.600;23.556;2024-03-17T09:03:33;93702.56;;;12.13;99.45
10466;BME280;5280;42.600;23.556;2024-03-17T09:06:01;93696.53;;;12.22;97.59
10466;BME280;5280;42.600;23.556;2024-03-17T09:08:28;93686.78;;;12.22;97.44
10466;BME280;5280;42.600;23.556;2024-03-17T09:10:56;93701.81;;;12.33;92.78
10466;BME280;5280;42.600;23.556;2024-03-17T09:13:25;93705.66;;;12.40;94.65
10466;BME280;5280;42.600;23.556;2024-03-17T09:15:53;93685.16;;;12.42;93.67
10466;BME280;5280;42.600;23.556;2024-03-17T09:18:20;93694.03;;;12.52;94.18
10466;BME280;5280;42.600;23.556;2024-03-17T09:20:56;93640.34;;;12.39;94.04
10466;BME280;5280;42.600;23.556;2024-03-17T09:23:23;93685.63;;;12.79;89.55
10466;BME280;5280;42.600;23.556;2024-03-17T09:25:59;93662.34;;;12.82;90.52
10466;BME280;5280;42.600;23.556;2024-03-17T09:28:28;93610.16;;;12.51;90.83
10466;BME280;5280;42.600;23.556;2024-03-17T09:30:56;93685.00;;;13.07;87.37
10466;BME280;5280;42.600;23.556;2024-03-17T09:33:24;93706.91;;;13.20;87.26
10466;BME280;5280;42.600;23.556;2024-03-17T09:35:55;93679.22;;;13.13;90.01
10466;BME280;5280;42.600;23.556;2024-03-17T09:38:23;93690.22;;;13.29;88.25
10466;BME280;5280;42.600;23.556;2024-03-17T09:40:50;93682.72;;;13.34;85.90
10466;BME280;5280;42.600;23.556;2024-03-17T09:43:20;93675.38;;;13.27;90.01
10466;BME280;5280;42.600;23.556;2024-03-17T09:45:48;93594.84;;;12.96;91.57
10466;BME280;5280;42.600;23.556;2024-03-17T09:48:17;93691.09;;;13.60;86.04
10466;BME280;5280;42.600;23.556;2024-03-17T09:50:50;93678.97;;;13.67;87.18
10466;BME280;5280;42.600;23.556;2024-03-17T09:53:23;93689.31;;;13.70;83.19
10466;BME280;5280;42.600;23.556;2024-03-17T09:55:51;93677.28;;;13.66;81.05
10466;BME280;5280;42.600;23.556;2024-03-17T09:58:20;93606.66;;;13.24;83.13
10466;BME280;5280;42.600;23.556;2024-03-17T10:00:47;93678.22;;;13.86;85.34
10466;BME280;5280;42.600;23.556;2024-03-17T10:03:40;93672.59;;;13.79;86.35
10466;BME280;5280;42.600;23.556;2024-03-17T10:06:08;93679.91;;;13.87;86.35
10466;BME280;5280;42.600;23.556;2024-03-17T10:08:43;93670.91;;;13.78;84.77
10466;BME280;5280;42.600;23.556;2024-03-17T10:11:11;93675.63;;;13.75;90.98
10466;BME280;5280;42.600;23.556;2024-03-17T10:13:41;93680.91;;;13.96;83.88
10466;BME280;5280;42.600;23.556;2024-03-17T10:16:20;93653.03;;;13.90;82.01
10466;BME280;5280;42.600;23.556;2024-03-17T10:18:48;93683.50;;;14.26;80.92
10466;BME280;5280;42.600;23.556;2024-03-17T10:21:25;93687.31;;;14.33;83.03
10466;BME280;5280;42.600;23.556;2024-03-17T10:24:05;93674.63;;;14.37;81.98
10466;BME280;5280;42.600;23.556;2024-03-17T10:26:35;93652.97;;;14.11;83.48
10466;BME280;5280;42.600;23.556;2024-03-17T10:29:04;93623.97;;;13.89;88.86
10466;BME280;5280;42.600;23.556;2024-03-17T10:31:32;93642.38;;;14.20;90.01
10466;BME280;5280;42.600;23.556;2024-03-17T10:34:05;93668.47;;;14.36;90.70
10466;BME280;5280;42.600;23.556;2024-03-17T10:36:32;93681.66;;;14.47;90.87
10466;BME280;5280;42.600;23.556;2024-03-17T10:38:59;93662.06;;;14.48;92.76
10466;BME280;5280;42.600;23.556;2024-03-17T10:41:27;93674.22;;;14.51;92.05
10466;BME280;5280;42.600;23.556;2024-03-17T10:43:58;93681.38;;;14.60;89.81
10466;BME280;5280;42.600;23.556;2024-03-17T10:46:27;93606.69;;;14.04;91.82
10466;BME280;5280;42.600;23.556;2024-03-17T10:48:54;93657.00;;;14.45;91.54
10466;BME280;5280;42.600;23.556;2024-03-17T10:51:22;93670.88;;;14.39;93.51
10466;BME280;5280;42.600;23.556;2024-03-17T10:53:54;93566.88;;;13.73;94.16
10466;BME280;5280;42.600;23.556;2024-03-17T10:56:28;93639.44;;;14.23;93.54
10466;BME280;5280;42.600;23.556;2024-03-17T10:59:00;93570.13;;;13.96;95.71
10466;BME280;5280;42.600;23.556;2024-03-17T11:01:33;93591.59;;;14.23;95.99
10466;BME280;5280;42.600;23.556;2024-03-17T11:04:08;93540.09;;;14.15;96.22
10466;BME280;5280;42.600;23.556;2024-03-17T11:06:42;93607.88;;;14.78;96.24
10466;BME280;5280;42.600;23.556;2024-03-17T11:09:13;93540.41;;;14.50;94.49
10466;BME280;5280;42.600;23.556;2024-03-17T11:11:41;93592.59;;;14.90;96.69
10466;BME280;5280;42.600;23.556;2024-03-17T11:14:19;93622.28;;;15.14;95.55
10466;BME280;5280;42.600;23.556;2024-03-17T11:16:50;93636.41;;;15.15;97.88
10466;BME280;5280;42.600;23.556;2024-03-17T11:19:18;93631.25;;;15.13;97.29
10466;BME280;5280;42.600;23.556;2024-03-17T11:21:45;93636.81;;;15.20;98.38
10466;BME280;5280;42.600;23.556;2024-03-17T11:24:20;93627.81;;;15.40;95.57
10466;BME280;5280;42.600;23.556;2024-03-17T11:26:47;93628.78;;;15.48;96.13
10466;BME280;5280;42.600;23.556;2024-03-17T11:29:28;93625.72;;;15.43;99.24
10466;BME280;5280;42.600;23.556;2024-03-17T11:31:59;93628.38;;;15.43;99.20
10466;BME280;5280;42.600;23.556;2024-03-17T11:34:30;93627.81;;;15.40;100.00
10466;BME280;5280;42.600;23.556;2024-03-17T11:36:57;93628.25;;;15.26;100.00
10466;BME280;5280;42.600;23.556;2024-03-17T11:39:50;93627.16;;;15.28;100.00
10466;BME280;5280;42.600;23.556;2024-03-17T11:42:19;93617.19;;;15.30;100.00
10466;BME280;5280;42.600;23.556;2024-03-17T11:45:02;93620.38;;;15.53;99.68
10466;BME280;5280;42.600;23.556;2024-03-17T11:47:40;93596.81;;;15.48;100.00
10466;BME280;5280;42.600;23.556;2024-03-17T11:50:09;93609.03;;;15.51;100.00
10466;BME280;5280;42.600;23.556;2024-03-17T11:52:36;93612.53;;;15.52;100.00
10466;BME280;5280;42.600;23.556;2024-03-17T11:55:15;93602.81;;;15.50;100.00
10466;BME280;5280;42.600;23.556;2024-03-17T11:57:41;93603.97;;;15.58;100.00
10466;BME280;5280;42.600;23.556;2024-03-17T12:00:19;93601.31;;;15.58;100.00
10466;BME280;5280;42.600;23.556;2024-03-17T12:02:49;93542.41;;;15.14;100.00
10466;BME280;5280;42.600;23.556;2024-03-17T12:05:18;93558.78;;;15.09;100.00
10466;BME280;5280;42.600;23.556;2024-03-17T12:07:44;93596.75;;;15.21;100.00
10466;BME280;5280;42.600;23.556;2024-03-17T12:10:11;93597.91;;;15.09;100.00
10466;BME280;5280;42.600;23.556;2024-03-17T12:12:39;93604.06;;;15.00;100.00
10466;BME280;5280;42.600;23.556;2024-03-17T12:15:16;93572.84;;;14.92;100.00
10466;BME280;5280;42.600;23.556;2024-03-17T12:17:43;93598.75;;;15.00;100.00
10466;BME280;5280;42.600;23.556;2024-03-17T12:20:18;93593.31;;;14.92;100.00
10466;BME280;5280;42.600;23.556;2024-03-17T12:22:45;93595.53;;;14.87;100.00
10466;BME280;5280;42.600;23.556;2024-03-17T12:25:17;93587.69;;;14.85;100.00
10466;BME280;5280;42.600;23.556;2024-03-17T12:27:45;93593.44;;;14.81;100.00
10466;BME280;5280;42.600;23.556;2024-03-17T12:30:14;93601.72;;;14.78;100.00
10466;BME280;5280;42.600;23.556;2024-03-17T12:32:41;93587.44;;;14.79;100.00
10466;BME280;5280;42.600;23.556;2024-03-17T12:35:13;93595.41;;;14.88;100.00
10466;BME280;5280;42.600;23.556;2024-03-17T12:37:43;93596.66;;;14.94;100.00
10466;BME280;5280;42.600;23.556;2024-03-17T12:40:18;93597.09;;;14.99;100.00
10466;BME280;5280;42.600;23.556;2024-03-17T12:42:48;93571.47;;;14.79;100.00
10466;BME280;5280;42.600;23.556;2024-03-17T12:45:21;93554.38;;;14.72;100.00
10466;BME280;5280;42.600;23.556;2024-03-17T12:47:50;93587.84;;;14.93;100.00
10466;BME280;5280;42.600;23.556;2024-03-17T12:50:19;93572.16;;;14.81;100.00
10466;BME280;5280;42.600;23.556;2024-03-17T12:52:54;93592.19;;;15.04;100.00
10466;BME280;5280;42.600;23.556;2024-03-17T12:55:22;93578.72;;;14.96;100.00
10466;BME280;5280;42.600;23.556;2024-03-17T12:58:08;93575.81;;;14.89;100.00
10466;BME280;5280;42.600;23.556;2024-03-17T13:00:57;93577.66;;;14.79;100.00
10466;BME280;5280;42.600;23.556;2024-03-17T13:03:25;93583.50;;;14.83;100.00
10466;BME280;5280;42.600;23.556;2024-03-17T13:05:53;93572.47;;;14.78;100.00
10466;BME280;5280;42.600;23.556;2024-03-17T13:08:21;93552.59;;;14.53;100.00